This is the latest recevied weather packets stored in our database for station/object SA3VCC-15. If no packets are shown the sender has not sent any weather packets the latest 10 day(s).
| Time | Temp. | Humidity | Pressure | Rain* | Wind** | Luminosity | Snow |
|---|---|---|---|---|---|---|---|
| 1777465562 | 12.22° C | 58% | 1024.5 hPa | - | - | - | - |
| 1777464301 | 14.44° C | 49% | 1024.4 hPa | - | - | - | - |
| 1777463041 | 12.78° C | 50% | 1024.6 hPa | - | - | - | - |
| 1777460521 | 15° C | 39% | 1024.5 hPa | - | - | - | - |
| 1777459261 | 14.44° C | 39% | 1024.5 hPa | - | - | - | - |
| 1777458001 | 15° C | 33% | 1024.5 hPa | - | - | - | - |
| 1777456741 | 13.89° C | 33% | 1024.6 hPa | - | - | - | - |
| 1777454221 | 15.56° C | 27% | 1024.6 hPa | - | - | - | - |
| 1777452961 | 12.78° C | 29% | 1024.6 hPa | - | - | - | - |
| 1777451701 | 15° C | 31% | 1024.7 hPa | - | - | - | - |
| 1777447921 | 11.11° C | 35% | 1024.8 hPa | - | - | - | - |
| 1777446661 | 13.89° C | 34% | 1024.9 hPa | - | - | - | - |
| 1777445401 | 12.78° C | 36% | 1025 hPa | - | - | - | - |
| 1777444141 | 10.56° C | 38% | 1025.1 hPa | - | - | - | - |
| 1777441621 | 4.44° C | 59% | 1025.3 hPa | - | - | - | - |
| 1777440361 | 2.78° C | 66% | 1025.4 hPa | - | - | - | - |
| 1777439101 | 1.67° C | 70% | 1025.4 hPa | - | - | - | - |
| 1777436581 | -0.56° C | 80% | 1025.3 hPa | - | - | - | - |
| 1777434061 | -1.67° C | 87% | 1025 hPa | - | - | - | - |
| 1777431540 | -3.33° C | 96% | 1025 hPa | - | - | - | - |
| 1777429020 | -4.44° C | 95% | 1025 hPa | - | - | - | - |
| 1777427760 | -3.89° C | 94% | 1025.1 hPa | - | - | - | - |
| 1777422720 | -1.67° C | 82% | 1025.1 hPa | - | - | - | - |
| 1777421460 | -0.56° C | 80% | 1025.1 hPa | - | - | - | - |
| 1777418940 | 0° C | 80% | 1025.2 hPa | - | - | - | - |
* Rain since midnight (hover to see other rain measurements)
** Current wind speed in m/s (hover to see current wind gust speed)